Time;durP1;ratioP1;P1;durP2;ratioP2;P2;SDS_P1;SDS_P2;PMS_P1;PMS_P2;Temp;Humidity;BMP_temperature;BMP_pressure;BME280_temperature;BME280_humidity;BME280_pressure;Samples;Min_cycle;Max_cycle;Signal;HPM_P1;HPM_P2
2022/06/29 00:01:19;;;;;;;;;;;;;;;21.67;66.57;153102.56;1743086;82;20139;-61
2022/06/29 00:03:45;;;;;;;;;;;;;;;21.68;66.55;153105.19;1743597;82;20904;-61
2022/06/29 00:06:12;;;;;;;;;;;;;;;21.70;66.50;153110.41;1743233;82;20713;-61
2022/06/29 00:08:39;;;;;;;;;;;;;;;21.71;66.32;153111.73;1743228;82;20136;-61
2022/06/29 00:11:06;;;;;;;;;;;;;;;21.74;66.33;153119.58;1733131;82;21192;-61
2022/06/29 00:13:32;;;;;;;;;;;;;;;21.75;66.44;153123.47;1726427;82;20173;-62
2022/06/29 00:16:00;;;;;;;;;;;;;;;21.75;66.42;153123.47;1726371;83;20192;-62
2022/06/29 00:18:27;;;;;;;;;;;;;;;21.74;65.99;153120.86;1726430;83;20216;-62
2022/06/29 00:20:54;;;;;;;;;;;;;;;21.72;66.24;153114.34;1726659;83;20164;-62
2022/06/29 00:23:21;;;;;;;;;;;;;;;21.71;66.42;153113.02;1726535;83;21256;-62
2022/06/29 00:25:47;;;;;;;;;;;;;;;21.69;66.23;153106.52;1726404;82;20164;-61
2022/06/29 00:28:14;;;;;;;;;;;;;;;21.67;66.00;153102.56;1726588;83;20208;-61
2022/06/29 00:30:41;;;;;;;;;;;;;;;21.69;65.85;153107.80;1726739;83;20141;-61
2022/06/29 00:33:07;;;;;;;;;;;;;;;21.71;65.71;153113.02;1726678;83;20176;-61
2022/06/29 00:35:35;;;;;;;;;;;;;;;21.70;65.66;153110.41;1726587;83;21271;-61
2022/06/29 00:38:03;;;;;;;;;;;;;;;21.69;65.60;153107.80;1726262;82;20165;-61
2022/06/29 00:40:29;;;;;;;;;;;;;;;21.70;65.46;153109.13;1726752;83;20164;-61
2022/06/29 00:42:56;;;;;;;;;;;;;;;21.68;65.40;153105.19;1726613;83;20142;-61
2022/06/29 00:45:23;;;;;;;;;;;;;;;21.65;65.07;153097.34;1726652;83;20422;-62
2022/06/29 00:47:50;;;;;;;;;;;;;;;21.61;65.05;153088.13;1726571;83;21838;-61
2022/06/29 00:50:18;;;;;;;;;;;;;;;21.56;65.03;153073.78;1726593;82;20105;-61
2022/06/29 00:52:45;;;;;;;;;;;;;;;21.51;64.95;153060.67;1726747;82;20138;-61
2022/06/29 00:55:14;;;;;;;;;;;;;;;21.46;65.22;153048.94;1721174;83;20418;-60
2022/06/29 00:57:42;;;;;;;;;;;;;;;21.41;65.47;153037.16;1718713;83;20204;-60
2022/06/29 01:00:10;;;;;;;;;;;;;;;21.35;65.67;153020.16;1719008;83;21953;-60
2022/06/29 01:02:37;;;;;;;;;;;;;;;21.28;65.97;153003.16;1718963;83;20171;-60
2022/06/29 01:05:05;;;;;;;;;;;;;;;21.24;66.21;152992.72;1718946;83;20201;-61
2022/06/29 01:07:33;;;;;;;;;;;;;;;21.18;66.21;152979.66;1718690;83;20185;-61
2022/06/29 01:10:00;;;;;;;;;;;;;;;21.15;66.25;152970.48;1719202;83;20202;-61
2022/06/29 01:12:27;;;;;;;;;;;;;;;21.16;66.09;152974.42;1720552;82;22150;-61
2022/06/29 01:14:54;;;;;;;;;;;;;;;21.17;66.00;152977.05;1720520;83;20141;-61
2022/06/29 01:17:22;;;;;;;;;;;;;;;21.17;65.78;152977.05;1720394;82;20184;-61
2022/06/29 01:19:49;;;;;;;;;;;;;;;21.20;65.61;152982.27;1720530;82;21995;-60
2022/06/29 01:22:16;;;;;;;;;;;;;;;21.26;65.22;152997.94;1720355;82;20137;-60
2022/06/29 01:24:47;;;;;;;;;;;;;;;21.31;64.90;153012.33;1720539;83;21118;-60
2022/06/29 01:27:14;;;;;;;;;;;;;;;21.38;64.66;153029.33;1720399;83;20149;-60
2022/06/29 01:29:41;;;;;;;;;;;;;;;21.44;64.39;153045.00;1720369;83;20475;-62
2022/06/29 01:32:08;;;;;;;;;;;;;;;21.50;64.14;153058.06;1720375;83;20778;-61
2022/06/29 01:34:35;;;;;;;;;;;;;;;21.53;64.00;153065.91;1720119;82;20172;-61
2022/06/29 01:37:02;;;;;;;;;;;;;;;21.56;63.84;153075.06;1719928;83;21244;-61
2022/06/29 01:39:29;;;;;;;;;;;;;;;21.57;63.87;153076.39;1720029;83;20109;-61
2022/06/29 01:41:56;;;;;;;;;;;;;;;21.56;63.99;153073.78;1720316;83;20220;-61
2022/06/29 01:44:23;;;;;;;;;;;;;;;21.51;64.05;153062.00;1720456;83;20429;-61
2022/06/29 01:46:49;;;;;;;;;;;;;;;21.47;64.20;153052.83;1720403;82;20189;-61
2022/06/29 01:49:16;;;;;;;;;;;;;;;21.46;64.20;153050.22;1720195;83;21945;-62
2022/06/29 01:51:43;;;;;;;;;;;;;;;21.44;64.34;153045.00;1720402;83;20129;-62
2022/06/29 01:54:10;;;;;;;;;;;;;;;21.47;64.41;153052.83;1719038;83;20514;-62
2022/06/29 01:56:37;;;;;;;;;;;;;;;21.49;64.52;153055.45;1709911;84;20169;-61
2022/06/29 01:59:03;;;;;;;;;;;;;;;21.50;64.79;153058.06;1709430;84;20152;-60
2022/06/29 02:01:30;;;;;;;;;;;;;;;21.51;64.83;153062.00;1709627;82;21234;-60
2022/06/29 02:03:57;;;;;;;;;;;;;;;21.52;65.14;153064.63;1709705;84;20145;-61
2022/06/29 02:06:24;;;;;;;;;;;;;;;21.55;65.31;153071.13;1709598;84;20176;-61
2022/06/29 02:08:52;;;;;;;;;;;;;;;21.56;65.32;153075.06;1709551;82;20173;-61
2022/06/29 02:11:19;;;;;;;;;;;;;;;21.57;65.27;153076.39;1709557;84;20382;-61
2022/06/29 02:13:46;;;;;;;;;;;;;;;21.56;65.38;153073.78;1709747;82;22170;-60
2022/06/29 02:16:13;;;;;;;;;;;;;;;21.55;65.50;153071.13;1709368;82;20150;-61
2022/06/29 02:18:40;;;;;;;;;;;;;;;21.53;65.36;153067.22;1709719;84;20138;-61
2022/06/29 02:21:07;;;;;;;;;;;;;;;21.50;65.37;153058.06;1709659;82;20161;-61
2022/06/29 02:23:35;;;;;;;;;;;;;;;21.47;65.25;153051.55;1709660;83;20176;-60
2022/06/29 02:26:02;;;;;;;;;;;;;;;21.44;65.18;153045.00;1709615;82;21245;-60
2022/06/29 02:28:28;;;;;;;;;;;;;;;21.44;65.25;153045.00;1709539;84;20150;-60
2022/06/29 02:36:29;;;;;;;;;;;;;;;21.69;65.50;153107.80;1709759;82;20402;-60
2022/06/29 02:38:56;;;;;;;;;;;;;;;21.85;65.03;153148.31;1709754;84;22853;-59
2022/06/29 02:41:23;;;;;;;;;;;;;;;21.95;64.61;153173.16;1709533;82;20453;-60
2022/06/29 02:43:49;;;;;;;;;;;;;;;21.98;64.03;153181.00;1709706;84;20094;-60
2022/06/29 02:46:16;;;;;;;;;;;;;;;21.97;63.89;153178.39;1709365;84;20197;-59
2022/06/29 02:48:43;;;;;;;;;;;;;;;21.97;64.08;153178.39;1709521;83;20193;-60
2022/06/29 02:51:09;;;;;;;;;;;;;;;21.97;64.09;153178.39;1709637;82;21240;-59
2022/06/29 02:53:36;;;;;;;;;;;;;;;21.98;64.12;153179.72;1709402;82;20483;-59
2022/06/29 02:56:04;;;;;;;;;;;;;;;21.96;64.61;153174.50;1730808;82;20463;-59
2022/06/29 02:58:30;;;;;;;;;;;;;;;21.96;64.62;153175.78;1737640;82;20692;-59
2022/06/29 03:00:57;;;;;;;;;;;;;;;21.98;64.85;153179.72;1737683;82;20199;-59
2022/06/29 03:03:24;;;;;;;;;;;;;;;22.00;65.25;153184.94;1737576;82;21245;-59
2022/06/29 03:05:50;;;;;;;;;;;;;;;21.99;65.75;153182.33;1737452;82;20218;-60
2022/06/29 03:08:17;;;;;;;;;;;;;;;22.01;65.92;153187.56;1737473;82;20326;-60
2022/06/29 03:10:44;;;;;;;;;;;;;;;22.08;66.21;153204.56;1729347;82;20217;-60
2022/06/29 03:13:11;;;;;;;;;;;;;;;22.14;66.64;153220.25;1718882;83;20178;-60
2022/06/29 03:15:38;;;;;;;;;;;;;;;22.20;66.72;153235.92;1718896;83;21047;-58
2022/06/29 03:18:06;;;;;;;;;;;;;;;22.26;66.85;153251.66;1718699;83;20197;-59
2022/06/29 03:20:33;;;;;;;;;;;;;;;22.33;66.72;153269.95;1718903;83;20169;-59
2022/06/29 03:23:00;;;;;;;;;;;;;;;22.41;66.91;153288.25;1718849;83;20177;-60
2022/06/29 03:25:27;;;;;;;;;;;;;;;22.45;66.89;153298.75;1718793;83;20166;-59
2022/06/29 03:27:54;;;;;;;;;;;;;;;22.49;67.01;153309.25;1718825;83;21237;-59
2022/06/29 03:30:20;;;;;;;;;;;;;;;22.54;67.35;153322.31;1718642;83;20189;-59
2022/06/29 03:32:47;;;;;;;;;;;;;;;22.62;67.50;153341.95;1718871;83;20237;-60
2022/06/29 03:35:14;;;;;;;;;;;;;;;22.72;67.56;153366.81;1718649;83;20243;-59
2022/06/29 03:37:40;;;;;;;;;;;;;;;22.84;67.39;153398.19;1718914;83;20169;-60
2022/06/29 03:40:08;;;;;;;;;;;;;;;22.92;67.36;153417.81;1718771;83;21252;-60
2022/06/29 03:42:35;;;;;;;;;;;;;;;23.00;67.56;153437.44;1718778;83;20201;-59
2022/06/29 03:45:03;;;;;;;;;;;;;;;23.08;67.77;153458.36;1718846;83;20176;-59
2022/06/29 03:47:30;;;;;;;;;;;;;;;23.17;67.95;153481.94;1718872;83;20197;-60
2022/06/29 03:49:57;;;;;;;;;;;;;;;23.27;68.01;153505.53;1718954;83;20146;-59
2022/06/29 03:52:23;;;;;;;;;;;;;;;23.40;67.88;153539.58;1718787;83;20783;-59
2022/06/29 03:54:50;;;;;;;;;;;;;;;23.49;67.98;153560.50;1718734;83;20442;-59
2022/06/29 03:57:16;;;;;;;;;;;;;;;23.56;68.06;153580.14;1719663;83;20174;-59
2022/06/29 03:59:43;;;;;;;;;;;;;;;23.67;68.18;153606.34;1719707;83;20177;-59
2022/06/29 04:02:09;;;;;;;;;;;;;;;23.81;68.19;153641.69;1719717;83;20464;-60
2022/06/29 04:04:36;;;;;;;;;;;;;;;23.94;68.05;153674.41;1719641;83;22119;-60
2022/06/29 04:07:04;;;;;;;;;;;;;;;24.06;68.03;153705.84;1719874;83;20136;-59
2022/06/29 04:09:32;;;;;;;;;;;;;;;24.16;67.93;153730.72;1719652;83;20178;-60
2022/06/29 04:11:58;;;;;;;;;;;;;;;24.22;68.02;153746.47;1721209;82;20478;-60
2022/06/29 04:14:26;;;;;;;;;;;;;;;24.32;68.21;153771.36;1689207;84;20179;-60
2022/06/29 04:16:54;;;;;;;;;;;;;;;24.46;68.24;153806.70;1676806;84;21243;-60
2022/06/29 04:19:21;;;;;;;;;;;;;;;24.59;68.32;153840.72;1676607;84;20493;-60
2022/06/29 04:21:48;;;;;;;;;;;;;;;24.71;68.28;153870.84;1676950;85;20168;-59
2022/06/29 04:24:15;;;;;;;;;;;;;;;24.79;68.26;153890.56;1676749;84;21021;-60
2022/06/29 04:26:42;;;;;;;;;;;;;;;24.92;68.28;153922.02;1676991;85;20157;-60
2022/06/29 04:29:09;;;;;;;;;;;;;;;25.06;67.88;153957.38;1676776;84;21271;-60
2022/06/29 04:31:35;;;;;;;;;;;;;;;25.20;67.57;153992.75;1721048;82;20469;-60
2022/06/29 04:34:03;;;;;;;;;;;;;;;25.37;67.21;154037.30;1689222;85;20175;-60
2022/06/29 04:36:30;;;;;;;;;;;;;;;25.56;66.71;154084.53;1676760;84;20150;-60
2022/06/29 04:38:57;;;;;;;;;;;;;;;25.74;65.76;154131.66;1676895;84;20456;-60
2022/06/29 04:41:24;;;;;;;;;;;;;;;25.89;65.30;154168.37;1676532;84;22099;-61
2022/06/29 04:43:50;;;;;;;;;;;;;;;26.04;64.42;154206.38;1676893;84;20145;-60
2022/06/29 04:46:21;;;;;;;;;;;;;;;26.15;64.12;154233.91;1676715;85;20165;-61
2022/06/29 04:48:53;;;;;;;;;;;;;;;26.27;63.11;154265.44;1676737;85;20442;-60
2022/06/29 04:51:20;;;;;;;;;;;;;;;26.39;62.25;154294.25;1676380;85;20413;-59
2022/06/29 04:53:47;;;;;;;;;;;;;;;26.54;60.99;154333.59;1676629;85;21142;-60
2022/06/29 04:56:16;;;;;;;;;;;;;;;26.74;60.59;154383.44;1667600;85;20416;-61
2022/06/29 04:58:43;;;;;;;;;;;;;;;26.94;60.04;154433.31;1661004;86;20174;-60
2022/06/29 05:01:10;;;;;;;;;;;;;;;27.12;59.55;154480.53;1661171;86;20512;-60
2022/06/29 05:03:37;;;;;;;;;;;;;;;27.25;58.72;154511.98;1661219;86;20394;-59
2022/06/29 05:06:04;;;;;;;;;;;;;;;27.37;58.35;154542.16;1661200;86;21318;-60
2022/06/29 05:08:31;;;;;;;;;;;;;;;27.53;58.18;154582.91;1661175;86;20145;-60
2022/06/29 05:10:58;;;;;;;;;;;;;;;27.73;57.03;154635.34;1674066;85;20483;-60
2022/06/29 05:13:26;;;;;;;;;;;;;;;27.94;56.03;154686.55;1684995;84;20797;-61
2022/06/29 05:15:53;;;;;;;;;;;;;;;28.14;55.51;154737.69;1685037;85;20455;-60
2022/06/29 05:18:20;;;;;;;;;;;;;;;28.30;54.70;154778.47;1685117;83;21855;-61
2022/06/29 05:20:46;;;;;;;;;;;;;;;28.43;53.35;154811.28;1684968;85;20210;-60
2022/06/29 05:23:14;;;;;;;;;;;;;;;28.52;52.87;154833.59;1685007;83;20231;-60
2022/06/29 05:25:41;;;;;;;;;;;;;;;28.65;52.29;154866.41;1685185;85;20235;-60
2022/06/29 05:28:08;;;;;;;;;;;;;;;28.73;52.31;154888.67;1685425;85;20211;-59
2022/06/29 05:30:36;;;;;;;;;;;;;;;28.83;51.98;154913.66;1685025;85;21137;-59
2022/06/29 05:33:05;;;;;;;;;;;;;;;28.99;51.57;154953.06;1685195;85;20226;-59
2022/06/29 05:35:33;;;;;;;;;;;;;;;29.13;50.63;154989.84;1685047;85;20151;-59
2022/06/29 05:38:02;;;;;;;;;;;;;;;29.25;50.65;155018.70;1685150;85;20198;-60
2022/06/29 05:40:29;;;;;;;;;;;;;;;29.37;50.10;155050.25;1684575;85;20206;-60
2022/06/29 05:42:57;;;;;;;;;;;;;;;29.42;49.66;155063.41;1685115;85;21196;-60
2022/06/29 05:45:25;;;;;;;;;;;;;;;29.43;49.03;155066.03;1685009;85;20179;-59
2022/06/29 05:47:53;;;;;;;;;;;;;;;29.38;49.03;155052.88;1685190;85;20194;-59
2022/06/29 05:50:23;;;;;;;;;;;;;;;29.41;49.37;155060.78;1685005;85;20218;-60
2022/06/29 05:52:51;;;;;;;;;;;;;;;29.41;48.95;155059.50;1685165;85;20444;-60
2022/06/29 05:55:18;;;;;;;;;;;;;;;29.43;48.92;155066.03;1684970;83;21134;-60
2022/06/29 05:57:45;;;;;;;;;;;;;;;29.48;48.86;155076.53;1685050;85;20280;-60
2022/06/29 06:00:13;;;;;;;;;;;;;;;29.55;48.69;155096.25;1678258;85;20206;-60
2022/06/29 06:02:39;;;;;;;;;;;;;;;29.64;48.72;155118.56;1660769;86;20479;-61
2022/06/29 06:05:07;;;;;;;;;;;;;;;29.76;48.50;155148.78;1714812;83;20211;-60
2022/06/29 06:07:34;;;;;;;;;;;;;;;29.78;48.55;155152.73;1714703;83;21070;-59
2022/06/29 06:10:01;;;;;;;;;;;;;;;29.78;48.18;155154.03;1726110;81;21082;-60
2022/06/29 06:12:28;;;;;;;;;;;;;;;29.80;48.13;155157.98;1722804;81;20375;-60
2022/06/29 06:14:57;;;;;;;;;;;;;;;29.84;47.50;155168.48;1714145;83;20166;-60
2022/06/29 06:17:26;;;;;;;;;;;;;;;29.84;47.49;155169.83;1717911;82;20227;-60
2022/06/29 06:19:53;;;;;;;;;;;;;;;29.82;47.48;155163.23;1717283;81;21146;-60
2022/06/29 06:22:21;;;;;;;;;;;;;;;29.91;47.35;155186.86;1714485;82;20214;-60
2022/06/29 06:24:47;;;;;;;;;;;;;;;30.01;47.30;155213.20;1714138;83;20174;-60
2022/06/29 06:27:14;;;;;;;;;;;;;;;30.14;46.95;155244.70;1718971;83;20678;-60
2022/06/29 06:29:42;;;;;;;;;;;;;;;30.25;46.81;155273.63;1715619;83;20148;-60
2022/06/29 06:32:09;;;;;;;;;;;;;;;30.36;46.61;155301.22;1715674;82;21234;-60
2022/06/29 06:34:35;;;;;;;;;;;;;;;30.42;46.42;155316.97;1717811;81;20171;-60
2022/06/29 06:37:03;;;;;;;;;;;;;;;30.45;46.12;155323.56;1716824;82;20165;-61
2022/06/29 06:39:30;;;;;;;;;;;;;;;30.50;46.10;155336.69;1725796;81;20439;-61
2022/06/29 06:41:56;;;;;;;;;;;;;;;30.57;45.82;155355.06;1725640;82;20171;-62
2022/06/29 06:44:23;;;;;;;;;;;;;;;30.55;45.69;155348.53;1733866;81;21232;-61
2022/06/29 06:46:51;;;;;;;;;;;;;;;30.54;45.75;155347.19;1731593;82;20483;-61
2022/06/29 06:49:22;;;;;;;;;;;;;;;30.56;45.77;155352.44;1730787;82;20140;-61
2022/06/29 06:51:46;;;;;;;;;;;;;;;30.57;45.76;155355.06;1724273;82;20379;-60
2022/06/29 06:54:13;;;;;;;;;;;;;;;30.67;45.38;155378.80;1734939;81;20192;-60
2022/06/29 06:56:40;;;;;;;;;;;;;;;30.69;45.24;155384.05;1731554;81;21913;-60
2022/06/29 06:59:06;;;;;;;;;;;;;;;30.75;45.05;155399.81;1722223;81;20560;-60
2022/06/29 07:01:34;;;;;;;;;;;;;;;30.84;44.90;155422.16;1724992;81;20528;-59
2022/06/29 07:04:01;;;;;;;;;;;;;;;30.93;44.87;155444.50;1736963;81;20178;-59
2022/06/29 07:06:27;;;;;;;;;;;;;;;31.01;44.52;155465.50;1730704;81;20478;-60
2022/06/29 07:08:54;;;;;;;;;;;;;;;31.05;44.29;155476.02;1729211;81;21991;-60
2022/06/29 07:11:22;;;;;;;;;;;;;;;31.07;44.19;155481.31;1737732;81;20173;-60
2022/06/29 07:13:49;;;;;;;;;;;;;;;31.08;44.31;155483.94;1735115;81;20151;-60
2022/06/29 07:16:16;;;;;;;;;;;;;;;31.10;44.30;155489.19;1727407;81;20424;-60
2022/06/29 07:18:42;;;;;;;;;;;;;;;31.12;44.25;155494.44;1733111;81;20171;-59
2022/06/29 07:21:09;;;;;;;;;;;;;;;31.13;44.25;155497.06;1755254;81;21790;-60
2022/06/29 07:23:36;;;;;;;;;;;;;;;31.09;44.35;155486.56;1731852;81;20207;-61
2022/06/29 07:26:03;;;;;;;;;;;;;;;31.01;45.09;155466.84;1731741;81;20166;-61
2022/06/29 07:28:31;;;;;;;;;;;;;;;30.95;45.73;155451.09;1742842;81;20439;-60
2022/06/29 07:30:57;;;;;;;;;;;;;;;30.98;45.09;155457.63;1741425;81;20706;-61
2022/06/29 07:33:24;;;;;;;;;;;;;;;31.00;45.35;155462.88;1735063;81;21774;-61
2022/06/29 07:35:51;;;;;;;;;;;;;;;31.05;45.39;155474.72;1721981;82;20177;-61
2022/06/29 07:38:19;;;;;;;;;;;;;;;31.06;44.80;155477.34;1697033;83;20166;-60
2022/06/29 07:40:45;;;;;;;;;;;;;;;30.94;45.25;155448.41;1693225;84;20343;-60
2022/06/29 07:43:12;;;;;;;;;;;;;;;30.92;45.70;155441.88;1716736;83;20148;-60
2022/06/29 07:45:39;;;;;;;;;;;;;;;30.86;46.28;155428.73;1724108;83;21292;-60
2022/06/29 07:48:07;;;;;;;;;;;;;;;30.91;46.54;155439.25;1676790;83;20487;-60
2022/06/29 07:50:35;;;;;;;;;;;;;;;30.94;46.69;155447.13;1696041;83;20218;-61
2022/06/29 07:53:02;;;;;;;;;;;;;;;30.99;46.84;155460.25;1695319;83;20216;-61
2022/06/29 07:55:28;;;;;;;;;;;;;;;31.13;46.58;155497.06;1703815;83;20218;-61
2022/06/29 07:57:55;;;;;;;;;;;;;;;31.23;46.34;155520.75;1725394;82;21272;-61
2022/06/29 08:00:22;;;;;;;;;;;;;;;31.29;46.10;155536.56;1736892;81;20277;-60
2022/06/29 08:02:51;;;;;;;;;;;;;;;31.34;46.06;155548.36;1719454;82;20175;-61
2022/06/29 08:05:17;;;;;;;;;;;;;;;31.37;46.17;155557.58;1712966;81;20183;-60
2022/06/29 08:07:45;;;;;;;;;;;;;;;31.41;46.17;155566.80;1709625;82;20214;-61
2022/06/29 08:10:12;;;;;;;;;;;;;;;31.42;45.96;155570.72;1713060;82;21211;-61
2022/06/29 08:12:38;;;;;;;;;;;;;;;31.38;45.98;155560.20;1716548;83;20559;-61
2022/06/29 08:15:06;;;;;;;;;;;;;;;31.37;45.95;155557.58;1716521;82;20593;-61
2022/06/29 08:17:32;;;;;;;;;;;;;;;31.34;45.91;155548.36;1719058;82;20147;-61
2022/06/29 08:19:59;;;;;;;;;;;;;;;31.28;45.95;155533.89;1733154;81;20242;-61
2022/06/29 08:22:25;;;;;;;;;;;;;;;31.26;46.27;155528.64;1733437;81;21161;-60
2022/06/29 08:24:52;;;;;;;;;;;;;;;31.33;46.41;155547.08;1746878;81;20199;-61
2022/06/29 08:27:21;;;;;;;;;;;;;;;31.39;46.64;155562.84;1747031;81;20317;-61
2022/06/29 08:29:50;;;;;;;;;;;;;;;31.44;46.81;155575.97;1738937;81;20776;-60
2022/06/29 08:32:17;;;;;;;;;;;;;;;31.49;46.90;155586.47;1723409;81;20135;-60
2022/06/29 08:34:43;;;;;;;;;;;;;;;31.50;46.91;155589.09;1727677;81;21072;-60
2022/06/29 08:37:10;;;;;;;;;;;;;;;31.54;46.83;155599.66;1743965;81;20208;-60
2022/06/29 08:39:36;;;;;;;;;;;;;;;31.55;46.98;155602.28;1732924;81;20397;-60
2022/06/29 08:42:04;;;;;;;;;;;;;;;31.53;46.76;155597.03;1718041;81;20721;-60
2022/06/29 08:44:36;;;;;;;;;;;;;;;31.53;46.97;155597.03;1728225;81;20178;-60
2022/06/29 08:47:07;;;;;;;;;;;;;;;31.59;46.86;155614.09;1714902;83;21073;-60
2022/06/29 08:49:36;;;;;;;;;;;;;;;31.64;46.80;155625.92;1718719;81;20454;-60
2022/06/29 08:52:04;;;;;;;;;;;;;;;31.65;46.84;155628.56;1717903;81;20231;-60
2022/06/29 08:54:31;;;;;;;;;;;;;;;31.73;47.05;155648.28;1729433;81;20262;-59
2022/06/29 08:56:58;;;;;;;;;;;;;;;31.77;46.82;155657.56;1718513;81;20175;-60
2022/06/29 08:59:25;;;;;;;;;;;;;;;31.79;46.48;155662.81;1719252;81;21147;-60
2022/06/29 09:01:52;;;;;;;;;;;;;;;31.80;46.48;155665.44;1739879;81;20447;-61
2022/06/29 09:04:19;;;;;;;;;;;;;;;31.81;46.43;155669.34;1726395;82;20459;-60
2022/06/29 09:06:46;;;;;;;;;;;;;;;31.85;46.46;155678.56;1725601;83;20699;-61
2022/06/29 09:09:13;;;;;;;;;;;;;;;31.90;46.24;155691.70;1703712;81;20156;-61
2022/06/29 09:11:46;;;;;;;;;;;;;;;31.93;45.80;155698.31;1725803;82;21243;-61
2022/06/29 09:14:15;;;;;;;;;;;;;;;31.93;45.53;155698.31;1728586;81;20195;-61
2022/06/29 09:16:53;;;;;;;;;;;;;;;31.92;45.30;155695.67;1732328;81;20682;-60
2022/06/29 09:19:21;;;;;;;;;;;;;;;31.90;45.03;155691.70;1715395;81;20191;-60
2022/06/29 09:21:48;;;;;;;;;;;;;;;31.89;44.89;155689.08;1729464;81;20174;-60
2022/06/29 09:24:16;;;;;;;;;;;;;;;31.86;44.85;155681.20;1735416;81;22049;-61
2022/06/29 09:26:43;;;;;;;;;;;;;;;31.86;44.69;155681.20;1713925;83;20199;-61
2022/06/29 09:29:20;;;;;;;;;;;;;;;31.86;44.91;155682.53;1722907;82;20206;-61
2022/06/29 09:32:08;;;;;;;;;;;;;;;31.89;44.96;155689.08;1732286;81;20213;-61
2022/06/29 09:34:38;;;;;;;;;;;;;;;31.91;44.83;155693.05;1722071;81;20250;-61
2022/06/29 09:37:06;;;;;;;;;;;;;;;31.95;44.52;155704.89;1726228;82;21151;-61
2022/06/29 09:39:46;;;;;;;;;;;;;;;31.93;44.56;155698.31;1737466;81;20203;-61
2022/06/29 09:42:22;;;;;;;;;;;;;;;31.90;44.76;155691.70;1723561;81;20621;-60
2022/06/29 09:44:50;;;;;;;;;;;;;;;31.90;44.23;155691.70;1725151;81;20202;-61
2022/06/29 09:47:19;;;;;;;;;;;;;;;31.90;43.99;155690.42;1727024;81;20210;-60
2022/06/29 09:49:57;;;;;;;;;;;;;;;31.89;43.95;155689.08;1725631;81;21131;-60
2022/06/29 09:52:24;;;;;;;;;;;;;;;31.89;43.81;155687.80;1721008;81;20170;-60
2022/06/29 09:54:56;;;;;;;;;;;;;;;31.91;44.33;155694.34;1730814;81;20194;-60
2022/06/29 09:57:30;;;;;;;;;;;;;;;31.95;44.19;155704.89;1734116;81;21034;-60
2022/06/29 10:02:50;;;;;;;;;;;;;;;31.96;43.83;155707.53;1743646;81;21235;-60
2022/06/29 10:05:22;;;;;;;;;;;;;;;31.96;43.92;155707.53;1749959;81;20223;-60
2022/06/29 10:07:51;;;;;;;;;;;;;;;31.95;44.16;155704.89;1716982;81;20206;-60
2022/06/29 10:10:19;;;;;;;;;;;;;;;31.92;44.21;155696.97;1724146;81;20778;-61
2022/06/29 10:16:06;;;;;;;;;;;;;;;31.88;43.99;155686.45;1740561;81;21261;-60
2022/06/29 10:18:38;;;;;;;;;;;;;;;31.82;44.29;155671.98;1732611;81;20453;-60
2022/06/29 10:21:19;;;;;;;;;;;;;;;31.82;44.33;155670.69;1736180;82;20235;-61
2022/06/29 10:23:50;;;;;;;;;;;;;;;31.84;44.05;155675.94;1731033;81;20881;-61
2022/06/29 10:26:36;;;;;;;;;;;;;;;31.83;44.06;155673.31;1733822;81;20186;-60
2022/06/29 10:29:12;;;;;;;;;;;;;;;31.80;44.29;155665.44;1730105;82;21338;-61
2022/06/29 10:31:56;;;;;;;;;;;;;;;31.73;44.42;155649.63;1731999;81;20446;-61
2022/06/29 10:34:34;;;;;;;;;;;;;;;31.61;44.75;155618.05;1730370;82;20182;-62
2022/06/29 10:37:08;;;;;;;;;;;;;;;31.52;44.78;155594.41;1744970;81;20492;-60
2022/06/29 10:39:49;;;;;;;;;;;;;;;31.46;44.63;155578.59;1732858;81;20147;-61
2022/06/29 10:45:16;;;;;;;;;;;;;;;31.37;45.12;155556.25;1727357;83;20132;-61
2022/06/29 10:47:58;;;;;;;;;;;;;;;31.35;45.42;155550.98;1727560;83;20112;-61
2022/06/29 10:50:26;;;;;;;;;;;;;;;31.34;45.61;155549.70;1730038;83;20339;-61
2022/06/29 10:52:57;;;;;;;;;;;;;;;31.30;45.84;155539.19;1730254;83;20184;-60
2022/06/29 10:55:28;;;;;;;;;;;;;;;31.27;45.91;155532.59;1730417;83;21222;-61
2022/06/29 10:57:54;;;;;;;;;;;;;;;31.25;45.14;155526.00;1724870;82;20168;-61
2022/06/29 11:00:22;;;;;;;;;;;;;;;31.21;45.18;155515.50;1721339;83;20171;-60
2022/06/29 11:02:49;;;;;;;;;;;;;;;31.20;45.53;155512.88;1724448;83;20458;-60
2022/06/29 11:05:17;;;;;;;;;;;;;;;31.19;45.60;155510.20;1733933;81;20425;-60
2022/06/29 11:13:23;;;;;;;;;;;;;;;31.09;45.68;155485.22;1735225;82;20504;-60
2022/06/29 11:15:51;;;;;;;;;;;;;;;31.09;45.45;155486.56;1681629;83;20425;-60
2022/06/29 11:18:19;;;;;;;;;;;;;;;31.07;45.48;155481.31;1687132;83;20178;-60
2022/06/29 11:20:51;;;;;;;;;;;;;;;31.11;45.41;155491.81;1687145;85;21166;-60
2022/06/29 11:23:24;;;;;;;;;;;;;;;31.14;45.11;155499.69;1693503;84;20187;-60
2022/06/29 11:25:54;;;;;;;;;;;;;;;31.18;45.18;155507.58;1687105;85;20195;-60
2022/06/29 11:28:25;;;;;;;;;;;;;;;31.16;45.00;155504.95;1677962;84;20635;-60
2022/06/29 11:31:02;;;;;;;;;;;;;;;31.15;45.12;155500.98;1686501;85;20581;-60
2022/06/29 11:33:33;;;;;;;;;;;;;;;31.14;44.63;155499.69;1668467;84;21287;-60
2022/06/29 11:36:21;;;;;;;;;;;;;;;31.12;44.50;155494.44;1729554;82;20472;-60
2022/06/29 11:38:50;;;;;;;;;;;;;;;31.12;44.68;155494.44;1715323;83;20455;-60
2022/06/29 11:43:03;;;;;;;;;;;;;;;31.13;44.55;155497.06;1716294;83;20203;-60
2022/06/29 11:44:04;;;;;;;;;;;;;;;31.11;44.54;155491.81;1714363;83;20119;-60
2022/06/29 11:46:35;;;;;;;;;;;;;;;31.10;44.46;155489.19;1716876;83;21257;-60
2022/06/29 11:51:53;;;;;;;;;;;;;;;31.09;44.98;155486.56;1716841;83;20216;-61
2022/06/29 11:54:37;;;;;;;;;;;;;;;31.14;45.06;155499.69;1721057;82;20883;-61
2022/06/29 11:57:05;;;;;;;;;;;;;;;31.22;44.90;155518.13;1712328;81;20200;-61
2022/06/29 11:59:33;;;;;;;;;;;;;;;31.25;45.01;155526.00;1719161;82;21312;-61
2022/06/29 12:02:00;;;;;;;;;;;;;;;31.23;45.09;155522.09;1718565;81;20211;-60
2022/06/29 12:04:31;;;;;;;;;;;;;;;31.20;45.35;155512.88;1719868;81;20183;-60
2022/06/29 12:07:05;;;;;;;;;;;;;;;31.20;45.86;155512.88;1716038;81;20206;-60
2022/06/29 12:09:34;;;;;;;;;;;;;;;31.20;46.09;155512.88;1675073;83;20193;-61
2022/06/29 12:12:01;;;;;;;;;;;;;;;31.13;46.12;155497.06;1682443;84;21124;-61
2022/06/29 12:14:28;;;;;;;;;;;;;;;31.05;46.44;155474.72;1651109;85;20183;-60
2022/06/29 12:16:55;;;;;;;;;;;;;;;30.97;46.84;155455.00;1651387;84;20187;-60
2022/06/29 12:19:22;;;;;;;;;;;;;;;30.94;46.86;155447.13;1644369;85;20231;-60
2022/06/29 12:21:49;;;;;;;;;;;;;;;30.86;47.10;155428.73;1676482;84;20202;-60
2022/06/29 12:24:17;;;;;;;;;;;;;;;30.77;47.29;155405.06;1686183;84;21215;-61
2022/06/29 12:26:43;;;;;;;;;;;;;;;30.71;47.67;155389.30;1686526;84;20202;-61
2022/06/29 12:29:13;;;;;;;;;;;;;;;30.66;47.79;155376.17;1664144;86;20188;-61
2022/06/29 12:31:40;;;;;;;;;;;;;;;30.57;48.21;155353.78;1661622;85;20177;-61
2022/06/29 12:34:07;;;;;;;;;;;;;;;30.50;48.54;155335.34;1665850;85;20590;-60
2022/06/29 12:36:34;;;;;;;;;;;;;;;30.45;48.78;155324.84;1680486;85;21945;-62
2022/06/29 12:39:01;;;;;;;;;;;;;;;30.40;49.08;155310.44;1700751;83;20168;-61
2022/06/29 12:41:27;;;;;;;;;;;;;;;30.30;49.03;155286.75;1653281;85;20207;-60
2022/06/29 12:43:54;;;;;;;;;;;;;;;30.26;49.22;155274.92;1654519;85;20191;-61
2022/06/29 12:46:21;;;;;;;;;;;;;;;30.19;49.58;155257.88;1660597;84;20175;-61
2022/06/29 12:48:48;;;;;;;;;;;;;;;30.14;49.87;155244.70;1715823;81;21240;-61
2022/06/29 12:51:15;;;;;;;;;;;;;;;30.14;49.86;155244.70;1725177;81;20533;-60
2022/06/29 12:53:42;;;;;;;;;;;;;;;30.13;49.71;155242.08;1720207;81;20167;-61
2022/06/29 12:56:09;;;;;;;;;;;;;;;30.12;49.78;155239.45;1736209;81;20216;-60
2022/06/29 12:58:35;;;;;;;;;;;;;;;30.10;49.93;155235.55;1724460;81;20144;-61
2022/06/29 13:01:04;;;;;;;;;;;;;;;30.09;50.15;155231.58;1719054;83;20173;-60
2022/06/29 13:03:30;;;;;;;;;;;;;;;30.10;50.35;155234.20;1717884;82;20218;-60